sensor_id;sensor_type;location;lat;lon;timestamp;temperature;humidity
20432;DHT22;10375;49.136;10.366;2023-07-02T00:00:04;17.30;99.90
20432;DHT22;10375;49.136;10.366;2023-07-02T00:02:32;17.40;99.90
20432;DHT22;10375;49.136;10.366;2023-07-02T00:04:59;17.40;99.90
20432;DHT22;10375;49.136;10.366;2023-07-02T00:07:26;17.40;99.90
20432;DHT22;10375;49.136;10.366;2023-07-02T00:09:54;17.50;99.90
20432;DHT22;10375;49.136;10.366;2023-07-02T00:12:21;17.50;99.90
20432;DHT22;10375;49.136;10.366;2023-07-02T00:14:48;17.50;99.90
20432;DHT22;10375;49.136;10.366;2023-07-02T00:17:15;17.50;99.90
20432;DHT22;10375;49.136;10.366;2023-07-02T00:19:42;17.50;99.90
20432;DHT22;10375;49.136;10.366;2023-07-02T00:22:10;17.50;99.90
20432;DHT22;10375;49.136;10.366;2023-07-02T00:24:37;17.50;99.90
20432;DHT22;10375;49.136;10.366;2023-07-02T00:27:04;17.50;99.90
20432;DHT22;10375;49.136;10.366;2023-07-02T00:29:31;17.50;99.90
20432;DHT22;10375;49.136;10.366;2023-07-02T00:31:58;17.50;99.90
20432;DHT22;10375;49.136;10.366;2023-07-02T00:34:26;17.40;99.90
20432;DHT22;10375;49.136;10.366;2023-07-02T00:36:53;17.40;99.90
20432;DHT22;10375;49.136;10.366;2023-07-02T00:39:20;17.40;99.90
20432;DHT22;10375;49.136;10.366;2023-07-02T00:41:47;17.30;99.90
20432;DHT22;10375;49.136;10.366;2023-07-02T00:44:14;17.30;99.90
20432;DHT22;10375;49.136;10.366;2023-07-02T00:46:42;17.30;99.90
20432;DHT22;10375;49.136;10.366;2023-07-02T00:49:09;17.30;99.90
20432;DHT22;10375;49.136;10.366;2023-07-02T00:51:37;17.30;99.90
20432;DHT22;10375;49.136;10.366;2023-07-02T00:54:04;17.30;99.90
20432;DHT22;10375;49.136;10.366;2023-07-02T00:56:31;17.30;99.90
20432;DHT22;10375;49.136;10.366;2023-07-02T00:58:59;17.30;99.90
20432;DHT22;10375;49.136;10.366;2023-07-02T01:01:28;17.30;99.90
20432;DHT22;10375;49.136;10.366;2023-07-02T01:04:00;17.20;99.90
20432;DHT22;10375;49.136;10.366;2023-07-02T01:06:29;17.30;99.90
20432;DHT22;10375;49.136;10.366;2023-07-02T01:09:04;17.20;99.90
20432;DHT22;10375;49.136;10.366;2023-07-02T01:11:37;17.20;99.90
20432;DHT22;10375;49.136;10.366;2023-07-02T01:14:26;17.20;99.90
20432;DHT22;10375;49.136;10.366;2023-07-02T01:16:55;17.20;99.90
20432;DHT22;10375;49.136;10.366;2023-07-02T01:22:11;17.20;99.90
20432;DHT22;10375;49.136;10.366;2023-07-02T01:24:39;17.20;99.90
20432;DHT22;10375;49.136;10.366;2023-07-02T01:27:07;17.10;99.90
20432;DHT22;10375;49.136;10.366;2023-07-02T01:29:34;17.10;99.90
20432;DHT22;10375;49.136;10.366;2023-07-02T01:32:04;17.00;99.90
20432;DHT22;10375;49.136;10.366;2023-07-02T01:34:32;17.00;99.90
20432;DHT22;10375;49.136;10.366;2023-07-02T01:36:59;16.90;99.90
20432;DHT22;10375;49.136;10.366;2023-07-02T01:39:26;16.80;99.90
20432;DHT22;10375;49.136;10.366;2023-07-02T01:42:16;16.80;99.90
20432;DHT22;10375;49.136;10.366;2023-07-02T01:44:45;16.70;99.90
20432;DHT22;10375;49.136;10.366;2023-07-02T01:47:12;16.60;99.90
20432;DHT22;10375;49.136;10.366;2023-07-02T01:49:39;16.50;99.90
20432;DHT22;10375;49.136;10.366;2023-07-02T01:52:07;16.50;99.90
20432;DHT22;10375;49.136;10.366;2023-07-02T01:54:35;16.50;99.90
20432;DHT22;10375;49.136;10.366;2023-07-02T01:57:03;16.40;99.90
20432;DHT22;10375;49.136;10.366;2023-07-02T01:59:31;16.40;99.90
20432;DHT22;10375;49.136;10.366;2023-07-02T02:01:58;16.30;99.90
20432;DHT22;10375;49.136;10.366;2023-07-02T02:04:26;16.30;99.90
20432;DHT22;10375;49.136;10.366;2023-07-02T02:06:53;16.20;99.90
20432;DHT22;10375;49.136;10.366;2023-07-02T02:09:20;16.10;99.90
20432;DHT22;10375;49.136;10.366;2023-07-02T02:11:49;16.10;99.90
20432;DHT22;10375;49.136;10.366;2023-07-02T02:14:17;16.00;99.90
20432;DHT22;10375;49.136;10.366;2023-07-02T02:16:44;16.00;99.90
20432;DHT22;10375;49.136;10.366;2023-07-02T02:19:14;16.00;99.90
20432;DHT22;10375;49.136;10.366;2023-07-02T02:21:42;16.00;99.90
20432;DHT22;10375;49.136;10.366;2023-07-02T02:24:10;15.90;99.90
20432;DHT22;10375;49.136;10.366;2023-07-02T02:26:38;15.90;99.90
20432;DHT22;10375;49.136;10.366;2023-07-02T02:29:05;15.90;99.90
20432;DHT22;10375;49.136;10.366;2023-07-02T02:31:32;15.80;99.90
20432;DHT22;10375;49.136;10.366;2023-07-02T02:33:59;15.80;99.90
20432;DHT22;10375;49.136;10.366;2023-07-02T02:36:28;15.70;99.90
20432;DHT22;10375;49.136;10.366;2023-07-02T02:38:55;15.70;99.90
20432;DHT22;10375;49.136;10.366;2023-07-02T02:41:22;15.70;99.90
20432;DHT22;10375;49.136;10.366;2023-07-02T02:43:49;15.60;99.90
20432;DHT22;10375;49.136;10.366;2023-07-02T02:46:20;15.60;99.90
20432;DHT22;10375;49.136;10.366;2023-07-02T02:48:51;15.60;99.90
20432;DHT22;10375;49.136;10.366;2023-07-02T02:51:18;15.50;99.90
20432;DHT22;10375;49.136;10.366;2023-07-02T02:53:45;15.50;99.90
20432;DHT22;10375;49.136;10.366;2023-07-02T02:56:13;15.50;99.90
20432;DHT22;10375;49.136;10.366;2023-07-02T02:58:40;15.50;99.90
20432;DHT22;10375;49.136;10.366;2023-07-02T03:01:07;15.40;99.90
20432;DHT22;10375;49.136;10.366;2023-07-02T03:03:41;15.50;99.90
20432;DHT22;10375;49.136;10.366;2023-07-02T03:06:13;15.50;99.90
20432;DHT22;10375;49.136;10.366;2023-07-02T03:08:42;15.50;99.90
20432;DHT22;10375;49.136;10.366;2023-07-02T03:11:09;15.40;99.90
20432;DHT22;10375;49.136;10.366;2023-07-02T03:13:36;15.40;99.90
20432;DHT22;10375;49.136;10.366;2023-07-02T03:16:04;15.40;99.90
20432;DHT22;10375;49.136;10.366;2023-07-02T03:18:31;15.50;99.90
20432;DHT22;10375;49.136;10.366;2023-07-02T03:20:59;15.50;99.90
20432;DHT22;10375;49.136;10.366;2023-07-02T03:23:26;15.50;99.90
20432;DHT22;10375;49.136;10.366;2023-07-02T03:25:53;15.50;99.90
20432;DHT22;10375;49.136;10.366;2023-07-02T03:28:20;15.50;99.90
20432;DHT22;10375;49.136;10.366;2023-07-02T03:30:48;15.50;99.90
20432;DHT22;10375;49.136;10.366;2023-07-02T03:33:15;15.40;99.90
20432;DHT22;10375;49.136;10.366;2023-07-02T03:35:42;15.40;99.90
20432;DHT22;10375;49.136;10.366;2023-07-02T03:38:09;15.40;99.90
20432;DHT22;10375;49.136;10.366;2023-07-02T03:40:36;15.40;99.90
20432;DHT22;10375;49.136;10.366;2023-07-02T03:43:05;15.40;99.90
20432;DHT22;10375;49.136;10.366;2023-07-02T03:45:32;15.40;99.90
20432;DHT22;10375;49.136;10.366;2023-07-02T03:48:00;15.50;99.90
20432;DHT22;10375;49.136;10.366;2023-07-02T03:50:27;15.60;99.90
20432;DHT22;10375;49.136;10.366;2023-07-02T03:52:54;15.60;99.90
20432;DHT22;10375;49.136;10.366;2023-07-02T03:55:21;15.70;99.90
20432;DHT22;10375;49.136;10.366;2023-07-02T03:57:48;15.70;99.90
20432;DHT22;10375;49.136;10.366;2023-07-02T04:00:16;15.70;99.90
20432;DHT22;10375;49.136;10.366;2023-07-02T04:02:43;15.70;99.90
20432;DHT22;10375;49.136;10.366;2023-07-02T04:05:10;15.70;99.90
20432;DHT22;10375;49.136;10.366;2023-07-02T04:07:37;15.80;99.90
20432;DHT22;10375;49.136;10.366;2023-07-02T04:10:05;15.80;99.90
20432;DHT22;10375;49.136;10.366;2023-07-02T04:12:32;15.80;99.90
20432;DHT22;10375;49.136;10.366;2023-07-02T04:14:59;15.90;99.90
20432;DHT22;10375;49.136;10.366;2023-07-02T04:17:26;16.00;99.90
20432;DHT22;10375;49.136;10.366;2023-07-02T04:19:54;16.00;99.90
20432;DHT22;10375;49.136;10.366;2023-07-02T04:22:22;16.00;99.90
20432;DHT22;10375;49.136;10.366;2023-07-02T04:24:49;16.00;99.90
20432;DHT22;10375;49.136;10.366;2023-07-02T04:27:24;16.00;99.90
20432;DHT22;10375;49.136;10.366;2023-07-02T04:30:12;16.00;99.90
20432;DHT22;10375;49.136;10.366;2023-07-02T04:32:41;16.10;99.90
20432;DHT22;10375;49.136;10.366;2023-07-02T04:35:08;16.10;99.90
20432;DHT22;10375;49.136;10.366;2023-07-02T04:37:36;16.10;99.90
20432;DHT22;10375;49.136;10.366;2023-07-02T04:40:03;16.10;99.90
20432;DHT22;10375;49.136;10.366;2023-07-02T04:42:33;16.10;99.90
20432;DHT22;10375;49.136;10.366;2023-07-02T04:45:01;16.10;99.90
20432;DHT22;10375;49.136;10.366;2023-07-02T04:47:29;16.20;99.90
20432;DHT22;10375;49.136;10.366;2023-07-02T04:49:57;16.20;99.90
20432;DHT22;10375;49.136;10.366;2023-07-02T04:52:24;16.10;99.90
20432;DHT22;10375;49.136;10.366;2023-07-02T04:54:51;16.20;99.90
20432;DHT22;10375;49.136;10.366;2023-07-02T04:57:18;16.20;99.90
20432;DHT22;10375;49.136;10.366;2023-07-02T04:59:46;16.20;99.90
20432;DHT22;10375;49.136;10.366;2023-07-02T05:02:13;16.20;99.90
20432;DHT22;10375;49.136;10.366;2023-07-02T05:04:40;16.30;99.90
20432;DHT22;10375;49.136;10.366;2023-07-02T05:07:07;16.30;99.90
20432;DHT22;10375;49.136;10.366;2023-07-02T05:09:34;16.30;99.90
20432;DHT22;10375;49.136;10.366;2023-07-02T05:12:01;16.30;99.90
20432;DHT22;10375;49.136;10.366;2023-07-02T05:14:28;16.30;99.90
20432;DHT22;10375;49.136;10.366;2023-07-02T05:16:56;16.30;99.90
20432;DHT22;10375;49.136;10.366;2023-07-02T05:19:23;16.40;99.90
20432;DHT22;10375;49.136;10.366;2023-07-02T05:21:50;16.40;99.90
20432;DHT22;10375;49.136;10.366;2023-07-02T05:24:17;16.40;99.90
20432;DHT22;10375;49.136;10.366;2023-07-02T05:26:44;16.50;99.90
20432;DHT22;10375;49.136;10.366;2023-07-02T05:29:11;16.50;99.90
20432;DHT22;10375;49.136;10.366;2023-07-02T05:31:38;16.60;99.90
20432;DHT22;10375;49.136;10.366;2023-07-02T05:34:06;16.60;99.90
20432;DHT22;10375;49.136;10.366;2023-07-02T05:36:33;16.70;99.90
20432;DHT22;10375;49.136;10.366;2023-07-02T05:39:01;16.90;99.90
20432;DHT22;10375;49.136;10.366;2023-07-02T05:41:28;16.90;99.90
20432;DHT22;10375;49.136;10.366;2023-07-02T05:43:58;16.80;99.90
20432;DHT22;10375;49.136;10.366;2023-07-02T05:46:25;16.80;99.90
20432;DHT22;10375;49.136;10.366;2023-07-02T05:48:52;16.80;99.90
20432;DHT22;10375;49.136;10.366;2023-07-02T05:51:23;16.90;99.90
20432;DHT22;10375;49.136;10.366;2023-07-02T05:53:52;17.00;99.90
20432;DHT22;10375;49.136;10.366;2023-07-02T05:56:19;17.00;99.90
20432;DHT22;10375;49.136;10.366;2023-07-02T05:58:49;17.00;99.90
20432;DHT22;10375;49.136;10.366;2023-07-02T06:01:17;17.10;99.90
20432;DHT22;10375;49.136;10.366;2023-07-02T06:03:44;17.30;99.90
20432;DHT22;10375;49.136;10.366;2023-07-02T06:06:12;17.40;99.90
20432;DHT22;10375;49.136;10.366;2023-07-02T06:08:39;17.40;99.90
20432;DHT22;10375;49.136;10.366;2023-07-02T06:11:06;17.50;99.90
20432;DHT22;10375;49.136;10.366;2023-07-02T06:13:34;17.60;99.90
20432;DHT22;10375;49.136;10.366;2023-07-02T06:16:01;17.80;99.90
20432;DHT22;10375;49.136;10.366;2023-07-02T06:18:28;18.30;99.90
20432;DHT22;10375;49.136;10.366;2023-07-02T06:20:56;19.30;99.90
20432;DHT22;10375;49.136;10.366;2023-07-02T06:23:23;20.60;99.90
20432;DHT22;10375;49.136;10.366;2023-07-02T06:25:50;22.50;97.40
20432;DHT22;10375;49.136;10.366;2023-07-02T06:28:19;23.20;93.90
20432;DHT22;10375;49.136;10.366;2023-07-02T06:30:47;22.80;93.50
20432;DHT22;10375;49.136;10.366;2023-07-02T06:33:15;22.60;93.70
20432;DHT22;10375;49.136;10.366;2023-07-02T06:35:42;22.80;93.20
20432;DHT22;10375;49.136;10.366;2023-07-02T06:38:09;24.00;91.70
20432;DHT22;10375;49.136;10.366;2023-07-02T06:40:36;24.70;89.00
20432;DHT22;10375;49.136;10.366;2023-07-02T06:43:03;24.70;89.80
20432;DHT22;10375;49.136;10.366;2023-07-02T06:45:30;26.60;85.20
20432;DHT22;10375;49.136;10.366;2023-07-02T06:47:57;28.60;78.60
20432;DHT22;10375;49.136;10.366;2023-07-02T06:50:24;30.10;72.50
20432;DHT22;10375;49.136;10.366;2023-07-02T06:52:52;31.10;68.70
20432;DHT22;10375;49.136;10.366;2023-07-02T06:55:19;31.40;66.00
20432;DHT22;10375;49.136;10.366;2023-07-02T06:57:46;31.90;64.80
20432;DHT22;10375;49.136;10.366;2023-07-02T07:00:14;32.50;61.80
20432;DHT22;10375;49.136;10.366;2023-07-02T07:02:41;32.50;62.80
20432;DHT22;10375;49.136;10.366;2023-07-02T07:05:09;32.50;59.60
20432;DHT22;10375;49.136;10.366;2023-07-02T07:07:36;32.20;59.10
20432;DHT22;10375;49.136;10.366;2023-07-02T07:10:04;32.10;58.90
20432;DHT22;10375;49.136;10.366;2023-07-02T07:12:32;32.20;58.40
20432;DHT22;10375;49.136;10.366;2023-07-02T07:14:59;31.60;58.10
20432;DHT22;10375;49.136;10.366;2023-07-02T07:17:26;30.00;58.70
20432;DHT22;10375;49.136;10.366;2023-07-02T07:19:53;29.00;61.70
20432;DHT22;10375;49.136;10.366;2023-07-02T07:22:20;29.10;60.60
20432;DHT22;10375;49.136;10.366;2023-07-02T07:24:47;28.10;63.20
20432;DHT22;10375;49.136;10.366;2023-07-02T07:27:14;26.60;64.90
20432;DHT22;10375;49.136;10.366;2023-07-02T07:29:42;26.50;64.50
20432;DHT22;10375;49.136;10.366;2023-07-02T07:32:09;26.40;61.30
20432;DHT22;10375;49.136;10.366;2023-07-02T07:34:36;27.10;59.80
20432;DHT22;10375;49.136;10.366;2023-07-02T07:37:03;26.40;59.20
20432;DHT22;10375;49.136;10.366;2023-07-02T07:39:30;26.00;61.00
20432;DHT22;10375;49.136;10.366;2023-07-02T07:41:57;25.50;63.00
20432;DHT22;10375;49.136;10.366;2023-07-02T07:44:24;27.50;60.10
20432;DHT22;10375;49.136;10.366;2023-07-02T07:46:56;27.70;58.80
20432;DHT22;10375;49.136;10.366;2023-07-02T07:49:23;27.40;58.80
20432;DHT22;10375;49.136;10.366;2023-07-02T07:51:50;27.30;59.10
20432;DHT22;10375;49.136;10.366;2023-07-02T07:54:19;27.00;59.00
20432;DHT22;10375;49.136;10.366;2023-07-02T07:56:46;26.60;59.20
20432;DHT22;10375;49.136;10.366;2023-07-02T07:59:13;25.90;60.80
20432;DHT22;10375;49.136;10.366;2023-07-02T08:01:41;25.20;61.50
20432;DHT22;10375;49.136;10.366;2023-07-02T08:04:08;25.00;62.70
20432;DHT22;10375;49.136;10.366;2023-07-02T08:06:36;25.30;63.50
20432;DHT22;10375;49.136;10.366;2023-07-02T08:09:03;25.60;62.60
20432;DHT22;10375;49.136;10.366;2023-07-02T08:11:30;25.40;63.50
20432;DHT22;10375;49.136;10.366;2023-07-02T08:13:58;25.30;62.20
20432;DHT22;10375;49.136;10.366;2023-07-02T08:16:25;25.50;62.00
20432;DHT22;10375;49.136;10.366;2023-07-02T08:18:52;25.70;61.50
20432;DHT22;10375;49.136;10.366;2023-07-02T08:21:20;25.60;60.90
20432;DHT22;10375;49.136;10.366;2023-07-02T08:23:47;25.00;62.10
20432;DHT22;10375;49.136;10.366;2023-07-02T08:26:14;24.40;63.80
20432;DHT22;10375;49.136;10.366;2023-07-02T08:28:41;23.70;65.10
20432;DHT22;10375;49.136;10.366;2023-07-02T08:31:08;24.00;65.40
20432;DHT22;10375;49.136;10.366;2023-07-02T08:33:35;24.10;65.00
20432;DHT22;10375;49.136;10.366;2023-07-02T08:36:02;24.00;65.50
20432;DHT22;10375;49.136;10.366;2023-07-02T08:38:29;24.20;64.30
20432;DHT22;10375;49.136;10.366;2023-07-02T08:40:57;24.50;63.00
20432;DHT22;10375;49.136;10.366;2023-07-02T08:43:26;24.20;64.80
20432;DHT22;10375;49.136;10.366;2023-07-02T08:45:54;24.10;64.30
20432;DHT22;10375;49.136;10.366;2023-07-02T08:48:21;24.60;63.50
20432;DHT22;10375;49.136;10.366;2023-07-02T08:50:50;25.00;62.50
20432;DHT22;10375;49.136;10.366;2023-07-02T08:53:18;25.30;61.90
20432;DHT22;10375;49.136;10.366;2023-07-02T08:55:45;25.60;61.00
20432;DHT22;10375;49.136;10.366;2023-07-02T08:58:14;25.20;60.70
20432;DHT22;10375;49.136;10.366;2023-07-02T09:03:31;24.00;63.10
20432;DHT22;10375;49.136;10.366;2023-07-02T09:05:59;23.70;64.00
20432;DHT22;10375;49.136;10.366;2023-07-02T09:08:27;23.50;64.70
20432;DHT22;10375;49.136;10.366;2023-07-02T09:11:08;23.20;66.00
20432;DHT22;10375;49.136;10.366;2023-07-02T09:13:46;23.20;65.50
20432;DHT22;10375;49.136;10.366;2023-07-02T09:16:27;23.80;64.30
20432;DHT22;10375;49.136;10.366;2023-07-02T09:19:06;24.50;60.80
20432;DHT22;10375;49.136;10.366;2023-07-02T09:21:42;25.50;61.30
20432;DHT22;10375;49.136;10.366;2023-07-02T09:24:23;26.10;58.30
20432;DHT22;10375;49.136;10.366;2023-07-02T09:27:03;26.80;58.50
20432;DHT22;10375;49.136;10.366;2023-07-02T09:29:32;27.00;57.80
20432;DHT22;10375;49.136;10.366;2023-07-02T09:32:01;26.80;56.50
20432;DHT22;10375;49.136;10.366;2023-07-02T09:34:38;26.70;58.20
20432;DHT22;10375;49.136;10.366;2023-07-02T09:37:06;26.60;56.00
20432;DHT22;10375;49.136;10.366;2023-07-02T09:39:34;26.40;56.80
20432;DHT22;10375;49.136;10.366;2023-07-02T09:42:05;26.00;57.80
20432;DHT22;10375;49.136;10.366;2023-07-02T09:44:34;25.60;58.90
20432;DHT22;10375;49.136;10.366;2023-07-02T09:47:04;25.80;59.00
20432;DHT22;10375;49.136;10.366;2023-07-02T09:49:43;26.40;58.10
20432;DHT22;10375;49.136;10.366;2023-07-02T09:52:14;26.90;55.70
20432;DHT22;10375;49.136;10.366;2023-07-02T09:54:41;27.30;56.30
20432;DHT22;10375;49.136;10.366;2023-07-02T09:57:09;27.50;55.70
20432;DHT22;10375;49.136;10.366;2023-07-02T09:59:37;27.50;56.60
20432;DHT22;10375;49.136;10.366;2023-07-02T10:02:04;27.70;56.10
20432;DHT22;10375;49.136;10.366;2023-07-02T10:04:44;27.70;54.20
20432;DHT22;10375;49.136;10.366;2023-07-02T10:07:12;27.60;54.60
20432;DHT22;10375;49.136;10.366;2023-07-02T10:09:44;27.50;55.80
20432;DHT22;10375;49.136;10.366;2023-07-02T10:12:25;27.40;55.70
20432;DHT22;10375;49.136;10.366;2023-07-02T10:14:55;27.20;54.60
20432;DHT22;10375;49.136;10.366;2023-07-02T10:17:31;26.90;56.30
20432;DHT22;10375;49.136;10.366;2023-07-02T10:20:05;27.40;57.00
20432;DHT22;10375;49.136;10.366;2023-07-02T10:22:49;27.70;56.60
20432;DHT22;10375;49.136;10.366;2023-07-02T10:25:27;27.60;56.20
20432;DHT22;10375;49.136;10.366;2023-07-02T10:27:55;27.30;55.80
20432;DHT22;10375;49.136;10.366;2023-07-02T10:30:38;27.00;56.00
20432;DHT22;10375;49.136;10.366;2023-07-02T10:33:13;26.90;56.00
20432;DHT22;10375;49.136;10.366;2023-07-02T10:35:42;27.20;55.60
20432;DHT22;10375;49.136;10.366;2023-07-02T10:38:29;27.60;55.00
20432;DHT22;10375;49.136;10.366;2023-07-02T10:40:57;27.90;54.90
20432;DHT22;10375;49.136;10.366;2023-07-02T10:43:27;28.50;54.50
20432;DHT22;10375;49.136;10.366;2023-07-02T10:45:57;28.60;52.80
20432;DHT22;10375;49.136;10.366;2023-07-02T10:48:27;28.70;52.30
20432;DHT22;10375;49.136;10.366;2023-07-02T10:50:55;28.30;52.20
20432;DHT22;10375;49.136;10.366;2023-07-02T10:53:22;27.90;53.70
20432;DHT22;10375;49.136;10.366;2023-07-02T10:55:56;27.80;54.10
20432;DHT22;10375;49.136;10.366;2023-07-02T10:58:25;27.90;54.60
20432;DHT22;10375;49.136;10.366;2023-07-02T11:00:52;27.50;54.40
20432;DHT22;10375;49.136;10.366;2023-07-02T11:03:22;27.20;55.30
20432;DHT22;10375;49.136;10.366;2023-07-02T11:05:51;27.50;54.80
20432;DHT22;10375;49.136;10.366;2023-07-02T11:08:19;27.40;53.90
20432;DHT22;10375;49.136;10.366;2023-07-02T11:11:09;26.90;55.60
20432;DHT22;10375;49.136;10.366;2023-07-02T11:13:44;26.80;55.80
20432;DHT22;10375;49.136;10.366;2023-07-02T11:16:27;26.60;55.70
20432;DHT22;10375;49.136;10.366;2023-07-02T11:19:07;26.50;54.70
20432;DHT22;10375;49.136;10.366;2023-07-02T11:21:36;26.40;54.90
20432;DHT22;10375;49.136;10.366;2023-07-02T11:24:07;26.50;55.20
20432;DHT22;10375;49.136;10.366;2023-07-02T11:26:38;27.00;53.80
20432;DHT22;10375;49.136;10.366;2023-07-02T11:29:17;27.30;53.90
20432;DHT22;10375;49.136;10.366;2023-07-02T11:31:45;27.60;54.30
20432;DHT22;10375;49.136;10.366;2023-07-02T11:34:17;28.10;53.30
20432;DHT22;10375;49.136;10.366;2023-07-02T11:36:47;27.90;54.10
20432;DHT22;10375;49.136;10.366;2023-07-02T11:39:15;27.80;53.90
20432;DHT22;10375;49.136;10.366;2023-07-02T11:41:44;28.10;53.80
20432;DHT22;10375;49.136;10.366;2023-07-02T11:44:12;28.10;53.20
20432;DHT22;10375;49.136;10.366;2023-07-02T11:46:39;27.70;53.70
20432;DHT22;10375;49.136;10.366;2023-07-02T11:49:06;27.70;54.20
20432;DHT22;10375;49.136;10.366;2023-07-02T11:51:37;27.30;54.10
20432;DHT22;10375;49.136;10.366;2023-07-02T11:54:06;27.10;54.70
20432;DHT22;10375;49.136;10.366;2023-07-02T11:56:33;26.80;56.10
20432;DHT22;10375;49.136;10.366;2023-07-02T11:59:01;26.70;54.40
20432;DHT22;10375;49.136;10.366;2023-07-02T12:01:31;27.00;54.70
20432;DHT22;10375;49.136;10.366;2023-07-02T12:03:59;27.40;53.40
20432;DHT22;10375;49.136;10.366;2023-07-02T12:06:26;27.30;51.50
20432;DHT22;10375;49.136;10.366;2023-07-02T12:08:54;27.20;53.30
20432;DHT22;10375;49.136;10.366;2023-07-02T12:11:21;27.10;54.40
20432;DHT22;10375;49.136;10.366;2023-07-02T12:13:49;27.40;53.80
20432;DHT22;10375;49.136;10.366;2023-07-02T12:16:16;27.40;53.70
20432;DHT22;10375;49.136;10.366;2023-07-02T12:18:44;27.00;55.00
20432;DHT22;10375;49.136;10.366;2023-07-02T12:21:11;26.70;55.40
20432;DHT22;10375;49.136;10.366;2023-07-02T12:23:38;27.00;54.70
20432;DHT22;10375;49.136;10.366;2023-07-02T12:26:06;27.80;53.60
20432;DHT22;10375;49.136;10.366;2023-07-02T12:28:33;28.20;53.00
20432;DHT22;10375;49.136;10.366;2023-07-02T12:31:00;27.80;52.80
20432;DHT22;10375;49.136;10.366;2023-07-02T12:33:29;27.40;52.70
20432;DHT22;10375;49.136;10.366;2023-07-02T12:35:56;27.10;53.60
20432;DHT22;10375;49.136;10.366;2023-07-02T12:38:24;26.70;54.90
20432;DHT22;10375;49.136;10.366;2023-07-02T12:40:51;26.30;56.30
20432;DHT22;10375;49.136;10.366;2023-07-02T12:43:18;26.40;56.10
20432;DHT22;10375;49.136;10.366;2023-07-02T12:45:47;26.60;56.40
20432;DHT22;10375;49.136;10.366;2023-07-02T12:48:14;26.70;55.10
20432;DHT22;10375;49.136;10.366;2023-07-02T12:50:41;26.60;56.90
20432;DHT22;10375;49.136;10.366;2023-07-02T12:53:09;26.80;55.10
20432;DHT22;10375;49.136;10.366;2023-07-02T12:55:36;27.40;55.20
20432;DHT22;10375;49.136;10.366;2023-07-02T12:58:03;27.40;54.50
20432;DHT22;10375;49.136;10.366;2023-07-02T13:00:30;27.30;54.60
20432;DHT22;10375;49.136;10.366;2023-07-02T13:02:58;27.20;54.10
20432;DHT22;10375;49.136;10.366;2023-07-02T13:05:31;27.60;53.80
20432;DHT22;10375;49.136;10.366;2023-07-02T13:07:59;27.60;53.90
20432;DHT22;10375;49.136;10.366;2023-07-02T13:10:26;27.40;53.30
20432;DHT22;10375;49.136;10.366;2023-07-02T13:12:54;27.00;54.00
20432;DHT22;10375;49.136;10.366;2023-07-02T13:15:29;26.40;54.30
20432;DHT22;10375;49.136;10.366;2023-07-02T13:17:56;25.90;56.10
20432;DHT22;10375;49.136;10.366;2023-07-02T13:20:23;25.70;56.60
20432;DHT22;10375;49.136;10.366;2023-07-02T13:22:51;25.90;56.70
20432;DHT22;10375;49.136;10.366;2023-07-02T13:25:19;26.30;56.00
20432;DHT22;10375;49.136;10.366;2023-07-02T13:27:47;26.90;55.00
20432;DHT22;10375;49.136;10.366;2023-07-02T13:30:15;26.60;55.00
20432;DHT22;10375;49.136;10.366;2023-07-02T13:32:42;27.00;55.30
20432;DHT22;10375;49.136;10.366;2023-07-02T13:35:10;26.80;54.90
20432;DHT22;10375;49.136;10.366;2023-07-02T13:37:38;26.80;55.70
20432;DHT22;10375;49.136;10.366;2023-07-02T13:40:05;26.80;55.60
20432;DHT22;10375;49.136;10.366;2023-07-02T13:42:35;27.00;55.80
20432;DHT22;10375;49.136;10.366;2023-07-02T13:45:03;26.80;54.70
20432;DHT22;10375;49.136;10.366;2023-07-02T13:47:30;27.00;55.50
20432;DHT22;10375;49.136;10.366;2023-07-02T13:49:57;26.90;54.40
20432;DHT22;10375;49.136;10.366;2023-07-02T13:52:25;26.80;55.00
20432;DHT22;10375;49.136;10.366;2023-07-02T13:54:52;26.60;55.00
20432;DHT22;10375;49.136;10.366;2023-07-02T13:57:20;26.00;55.90
20432;DHT22;10375;49.136;10.366;2023-07-02T13:59:47;26.00;57.40
20432;DHT22;10375;49.136;10.366;2023-07-02T14:02:14;26.30;56.30
20432;DHT22;10375;49.136;10.366;2023-07-02T14:04:41;26.40;56.00
20432;DHT22;10375;49.136;10.366;2023-07-02T14:07:08;26.10;56.20
20432;DHT22;10375;49.136;10.366;2023-07-02T14:09:35;25.90;56.50
20432;DHT22;10375;49.136;10.366;2023-07-02T14:12:04;25.70;57.80
20432;DHT22;10375;49.136;10.366;2023-07-02T14:14:32;26.00;57.30
20432;DHT22;10375;49.136;10.366;2023-07-02T14:17:01;26.50;56.30
20432;DHT22;10375;49.136;10.366;2023-07-02T14:19:29;26.60;55.20
20432;DHT22;10375;49.136;10.366;2023-07-02T14:21:57;26.80;54.70
20432;DHT22;10375;49.136;10.366;2023-07-02T14:24:24;26.70;54.40
20432;DHT22;10375;49.136;10.366;2023-07-02T14:26:52;26.60;55.50
20432;DHT22;10375;49.136;10.366;2023-07-02T14:29:19;26.80;55.20
20432;DHT22;10375;49.136;10.366;2023-07-02T14:31:47;26.90;53.90
20432;DHT22;10375;49.136;10.366;2023-07-02T14:34:14;26.70;54.10
20432;DHT22;10375;49.136;10.366;2023-07-02T14:36:42;26.40;54.50
20432;DHT22;10375;49.136;10.366;2023-07-02T14:39:11;26.40;56.10
20432;DHT22;10375;49.136;10.366;2023-07-02T14:41:38;26.60;55.60
20432;DHT22;10375;49.136;10.366;2023-07-02T14:44:06;26.50;55.20
20432;DHT22;10375;49.136;10.366;2023-07-02T14:46:33;26.40;55.70
20432;DHT22;10375;49.136;10.366;2023-07-02T14:49:01;26.20;56.00
20432;DHT22;10375;49.136;10.366;2023-07-02T14:51:28;26.00;56.60
20432;DHT22;10375;49.136;10.366;2023-07-02T14:53:55;25.90;57.00
20432;DHT22;10375;49.136;10.366;2023-07-02T14:56:23;26.20;57.10
20432;DHT22;10375;49.136;10.366;2023-07-02T14:58:50;26.60;56.30
20432;DHT22;10375;49.136;10.366;2023-07-02T15:01:17;26.70;55.80
20432;DHT22;10375;49.136;10.366;2023-07-02T15:03:44;26.60;56.10
20432;DHT22;10375;49.136;10.366;2023-07-02T15:06:14;26.50;55.00
20432;DHT22;10375;49.136;10.366;2023-07-02T15:08:42;26.20;55.50
20432;DHT22;10375;49.136;10.366;2023-07-02T15:11:12;25.90;56.10
20432;DHT22;10375;49.136;10.366;2023-07-02T15:13:39;25.80;56.60
20432;DHT22;10375;49.136;10.366;2023-07-02T15:16:09;25.60;57.00
20432;DHT22;10375;49.136;10.366;2023-07-02T15:18:38;25.80;57.20
20432;DHT22;10375;49.136;10.366;2023-07-02T15:21:06;26.00;56.80
20432;DHT22;10375;49.136;10.366;2023-07-02T15:23:33;26.30;56.50
20432;DHT22;10375;49.136;10.366;2023-07-02T15:26:03;26.40;56.00
20432;DHT22;10375;49.136;10.366;2023-07-02T15:28:31;26.60;56.10